Wednesday, February 10, 2016, 2:53 PM EST

KSBY, Salisbury-wicomico Cty Reg

Location: Salisbury, MD, United States Lat: 38.333
Local Time: 2:53 PM EST (19:53 GMT) Lon: -75.5
Time Zone: US/Eastern Elev: 52 ft

Show me the last for .
Show Decoded

2016-02-10 13:54 METAR KSBY 101854Z 29009KT 10SM BKN043 02/M07 A2977 RMK AO2 SLP082 T00221067 =
2016-02-10 12:54 METAR KSBY 101754Z 28014G20KT 10SM OVC039 02/M07 A2977 RMK AO2 SLP085 60000
                 T00171067 10022 21017 58007 =
2016-02-10 11:54 METAR KSBY 101654Z AUTO 30012KT 10SM OVC039 01/M06 A2978 RMK AO2 SLP088
                 T00111061 =
2016-02-10 10:54 METAR KSBY 101554Z 28014G19KT 10SM OVC035 01/M06 A2979 RMK AO2 SLP091 T00061061
                 =
2016-02-10 09:54 METAR KSBY 101454Z 28011G20KT 10SM FEW080 01/M04 A2979 RMK AO2 SLP091 60000
                 T00061044 51016 =
2016-02-10 08:54 METAR KSBY 101354Z 28009KT 10SM FEW048 OVC060 M01/M04 A2979 RMK AO2 SNE22 SLP091
                 P0000 T10061039 =
2016-02-10 08:22 METAR KSBY 101322Z 28009KT 250V310 5SM BR FEW011 BKN037 OVC048 M01/M03 A2979 RMK
                 AO2 SNE22 P0000 T10111033 =
2016-02-10 08:14 METAR KSBY 101314Z 28008KT 2 1/2SM -SN BR FEW011 BKN031 OVC038 M02/M03 A2978 RMK
                 AO2 P0000 T10171028 =
2016-02-10 08:09 METAR KSBY 101309Z 27010KT 1 1/2SM -SN BR FEW009 SCT013 OVC027 M02/M03 A2978 RMK
                 AO2 P0000 T10171033 =
2016-02-10 08:01 METAR KSBY 101301Z 27008KT 2SM -SN BR SCT011 BKN016 OVC021 M02/M03 A2978 RMK AO2
                 P0000 T10171028 =
2016-02-10 07:54 METAR KSBY 101254Z 28010KT 1SM -SN BR FEW009 BKN014 OVC021 M02/M03 A2978 RMK AO2
                 SLP086 P0000 T10171028 =
2016-02-10 07:04 METAR KSBY 101204Z 27009KT 1 1/4SM -SN BR SCT009 OVC016 M02/M03 A2975 RMK AO2
                 P0000 T10171028 =
2016-02-10 06:54 METAR KSBY 101154Z 28008KT 1SM -SN BR SCT011 OVC016 M02/M03 A2975 RMK AO2 SLP075
                 P0001 60002 70010 T10171028 10011 21017 51014 =
2016-02-10 06:51 METAR KSBY 101151Z 27008KT 1SM -SN BR BKN011 OVC016 M02/M03 A2974 RMK AO2 P0000
                 =
2016-02-10 05:54 METAR KSBY 101054Z AUTO 28008KT 1 1/2SM -SN BR SCT009 BKN015 OVC021 M02/M03
                 A2972 RMK AO2 SLP066 P0001 T10171028 =
2016-02-10 05:37 METAR KSBY 101037Z AUTO 28006KT 1 3/4SM -SN BR FEW010 BKN017 OVC039 M01/M03
                 A2972 RMK AO2 P0000 T10111033 =
2016-02-10 05:32 METAR KSBY 101032Z AUTO 28007KT 2 1/2SM -SN BR BKN014 BKN019 OVC039 M01/M03
                 A2971 RMK AO2 P0000 T10111033 =
2016-02-10 04:54 METAR KSBY 100954Z AUTO 28010KT 3SM -SN BKN021 BKN027 OVC040 M01/M04 A2970 RMK
                 AO2 SNB0856 SLP062 P0000 T10111039 =
2016-02-10 03:54 METAR KSBY 100854Z AUTO 29010G15KT 10SM OVC038 00/M04 A2968 RMK AO2 SLP054
                 T00001044 53006 =
2016-02-10 02:54 METAR KSBY 100754Z AUTO 28008KT 10SM FEW042 BKN065 OVC085 00/M04 A2967 RMK AO2
                 SLP050 T00001044 =
2016-02-10 01:54 METAR KSBY 100654Z AUTO 27008KT 10SM FEW075 BKN100 00/M04 A2966 RMK AO2 SLP047
                 T00001039 =
2016-02-10 00:54 METAR KSBY 100554Z AUTO 28005KT 10SM OVC100 01/M03 A2966 RMK AO2 SLP047
                 T00111028 10022 20011 50003 =
2016-02-09 23:54 METAR KSBY 100454Z AUTO 29006KT 10SM BKN090 OVC100 01/M03 A2966 RMK AO2 SLP048
                 T00111028 400560011 =
2016-02-09 22:54 METAR KSBY 100354Z AUTO 27010KT 10SM FEW060 BKN085 OVC110 02/M02 A2966 RMK AO2
                 SLP045 T00171017 =
2016-02-09 21:54 METAR KSBY 100254Z 28005KT 10SM SCT070 BKN080 OVC110 02/M01 A2965 RMK AO2 SLP044
                 T00221006 53009 =
2016-02-09 20:54 METAR KSBY 100154Z 28006KT 10SM FEW020 OVC110 02/00 A2964 RMK AO2 SLP039
                 T00220000 =
2016-02-09 19:54 METAR KSBY 100054Z 25004KT 10SM OVC120 01/00 A2963 RMK AO2 SLP036 T00110000 =
2016-02-09 18:54 METAR KSBY 092354Z 27005KT 10SM FEW070 02/00 A2963 RMK AO2 SLP035 60006
                 T00220000 10056 20022 53028 =
2016-02-09 17:54 METAR KSBY 092254Z 30009G16KT 10SM FEW014 SCT022 OVC110 03/01 A2960 RMK AO2
                 SLP025 T00330006 =
2016-02-09 17:13 METAR KSBY 092213Z 28007KT 10SM BKN015 BKN024 OVC120 04/02 A2957 RMK AO2
                 T00390017 =
2016-02-09 16:54 METAR KSBY 092154Z 26007KT 10SM SCT021 BKN055 OVC120 04/02 A2956 RMK AO2 SLP014
                 T00390017 =
2016-02-09 16:18 METAR KSBY 092118Z 28003KT 10SM BKN016 BKN027 OVC044 05/03 A2955 RMK AO2
                 T00500033 =
2016-02-09 15:54 METAR KSBY 092054Z 00000KT 10SM FEW012 BKN048 OVC065 05/03 A2954 RMK AO2 RAE27
                 SLP007 P0001 60006 T00500028 53008 =
2016-02-09 15:45 METAR KSBY 092045Z 28003KT 10SM SCT014 BKN048 OVC065 05/03 A2954 RMK AO2 RAE27
                 P0001 T00500028 =
2016-02-09 14:54 METAR KSBY 091954Z 32008KT 8SM -RA SCT007 BKN017 OVC027 04/03 A2953 RMK AO2
                 RAB26 SLP002 P0001 T00440028 =

Support USWX by starting your Amazon purchase here.